Terminal Aerodrome Forecast
Issued by NWS Austin/San Antonio, TX

Home | Current Version | Previous Version | Text Only | Print | Product List | Glossary On
Versions: 1 2 3 4 5 6 7 8 9 10 11 12 13 14 15 16 17 18 19 20 21 22 23 24 25 26 27 28 29 30 31 32 33 34 35 36
832
FTUS44 KEWX 220530 AAA
TAFAUS
TAF AMD
KAUS 220530Z 2206/2312 36008KT P6SM OVC009
     FM221300 35008KT 4SM BR VCSH OVC006
     FM222300 35005KT 3SM BR OVC004
     FM230500 01005KT 1SM BR OVC003=

USA.gov is the U.S. government's official web portal to all federal, state and local government web resources and services.